sensor_id;sensor_type;location;lat;lon;timestamp;pressure;altitude;pressure_sealevel;temperature;humidity
48848;BME280;36611;51.638;5.784;2022-08-19T00:01:41;101190.53;;;23.04;52.10
48848;BME280;36611;51.638;5.784;2022-08-19T00:04:11;101189.16;;;23.00;52.20
48848;BME280;36611;51.638;5.784;2022-08-19T00:06:40;101186.78;;;22.97;52.48
48848;BME280;36611;51.638;5.784;2022-08-19T00:09:09;101175.16;;;22.95;52.28
48848;BME280;36611;51.638;5.784;2022-08-19T00:11:37;101186.28;;;22.94;52.36
48848;BME280;36611;51.638;5.784;2022-08-19T00:14:09;101186.66;;;22.91;52.61
48848;BME280;36611;51.638;5.784;2022-08-19T00:16:37;101192.50;;;22.88;52.69
48848;BME280;36611;51.638;5.784;2022-08-19T00:19:05;101192.00;;;22.84;52.69
48848;BME280;36611;51.638;5.784;2022-08-19T00:21:32;101194.75;;;22.84;52.58
48848;BME280;36611;51.638;5.784;2022-08-19T00:24:03;101192.19;;;22.82;52.73
48848;BME280;36611;51.638;5.784;2022-08-19T00:26:29;101193.41;;;22.80;52.87
48848;BME280;36611;51.638;5.784;2022-08-19T00:28:56;101190.13;;;22.76;52.74
48848;BME280;36611;51.638;5.784;2022-08-19T00:31:22;101195.13;;;22.73;52.48
48848;BME280;36611;51.638;5.784;2022-08-19T00:33:49;101195.13;;;22.73;52.62
48848;BME280;36611;51.638;5.784;2022-08-19T00:36:17;101197.00;;;22.72;52.72
48848;BME280;36611;51.638;5.784;2022-08-19T00:38:44;101190.00;;;22.70;52.69
48848;BME280;36611;51.638;5.784;2022-08-19T00:41:15;101196.69;;;22.67;52.71
48848;BME280;36611;51.638;5.784;2022-08-19T00:43:59;101195.69;;;22.60;52.51
48848;BME280;36611;51.638;5.784;2022-08-19T00:46:27;101190.94;;;22.54;52.41
48848;BME280;36611;51.638;5.784;2022-08-19T00:48:55;101191.66;;;22.48;52.35
48848;BME280;36611;51.638;5.784;2022-08-19T00:51:25;101187.06;;;22.40;52.41
48848;BME280;36611;51.638;5.784;2022-08-19T00:53:58;101186.75;;;22.35;52.38
48848;BME280;36611;51.638;5.784;2022-08-19T00:56:25;101186.56;;;22.29;52.72
48848;BME280;36611;51.638;5.784;2022-08-19T00:58:55;101192.56;;;22.24;52.67
48848;BME280;36611;51.638;5.784;2022-08-19T01:01:22;101195.84;;;22.19;52.73
48848;BME280;36611;51.638;5.784;2022-08-19T01:03:52;101198.06;;;22.16;52.88
48848;BME280;36611;51.638;5.784;2022-08-19T01:06:25;101187.66;;;22.11;53.05
48848;BME280;36611;51.638;5.784;2022-08-19T01:08:53;101190.06;;;22.06;52.76
48848;BME280;36611;51.638;5.784;2022-08-19T01:11:20;101197.91;;;22.01;53.36
48848;BME280;36611;51.638;5.784;2022-08-19T01:13:52;101204.25;;;21.94;53.34
48848;BME280;36611;51.638;5.784;2022-08-19T01:16:21;101208.38;;;21.89;53.30
48848;BME280;36611;51.638;5.784;2022-08-19T01:18:49;101215.03;;;21.87;53.58
48848;BME280;36611;51.638;5.784;2022-08-19T01:21:23;101207.19;;;21.84;53.61
48848;BME280;36611;51.638;5.784;2022-08-19T01:23:53;101194.88;;;21.80;53.53
48848;BME280;36611;51.638;5.784;2022-08-19T01:26:23;101193.34;;;21.77;53.57
48848;BME280;36611;51.638;5.784;2022-08-19T01:28:54;101197.13;;;21.76;53.86
48848;BME280;36611;51.638;5.784;2022-08-19T01:31:28;101188.91;;;21.76;53.84
48848;BME280;36611;51.638;5.784;2022-08-19T01:34:00;101198.16;;;21.75;53.67
48848;BME280;36611;51.638;5.784;2022-08-19T01:36:36;101201.91;;;21.74;53.76
48848;BME280;36611;51.638;5.784;2022-08-19T01:39:07;101208.41;;;21.73;54.06
48848;BME280;36611;51.638;5.784;2022-08-19T01:42:12;101193.19;;;21.71;53.88
48848;BME280;36611;51.638;5.784;2022-08-19T01:44:39;101204.66;;;21.66;53.98
48848;BME280;36611;51.638;5.784;2022-08-19T01:47:07;101204.13;;;21.63;53.67
48848;BME280;36611;51.638;5.784;2022-08-19T01:49:36;101201.06;;;21.58;53.68
48848;BME280;36611;51.638;5.784;2022-08-19T01:52:04;101203.25;;;21.54;53.95
48848;BME280;36611;51.638;5.784;2022-08-19T01:54:32;101204.63;;;21.50;53.83
48848;BME280;36611;51.638;5.784;2022-08-19T01:57:09;101209.59;;;21.46;53.81
48848;BME280;36611;51.638;5.784;2022-08-19T01:59:37;101211.63;;;21.44;54.13
48848;BME280;36611;51.638;5.784;2022-08-19T02:02:05;101218.13;;;21.43;54.14
48848;BME280;36611;51.638;5.784;2022-08-19T02:04:36;101223.75;;;21.42;54.42
48848;BME280;36611;51.638;5.784;2022-08-19T02:07:05;101216.59;;;21.41;54.33
48848;BME280;36611;51.638;5.784;2022-08-19T02:09:32;101220.69;;;21.37;54.16
48848;BME280;36611;51.638;5.784;2022-08-19T02:11:58;101222.72;;;21.35;54.42
48848;BME280;36611;51.638;5.784;2022-08-19T02:14:26;101229.56;;;21.31;54.43
48848;BME280;36611;51.638;5.784;2022-08-19T02:16:53;101226.81;;;21.31;54.54
48848;BME280;36611;51.638;5.784;2022-08-19T02:19:19;101226.66;;;21.24;54.70
48848;BME280;36611;51.638;5.784;2022-08-19T02:21:46;101227.97;;;21.20;54.84
48848;BME280;36611;51.638;5.784;2022-08-19T02:24:13;101215.69;;;21.16;54.87
48848;BME280;36611;51.638;5.784;2022-08-19T02:26:40;101220.63;;;21.12;54.90
48848;BME280;36611;51.638;5.784;2022-08-19T02:29:07;101220.63;;;21.12;54.74
48848;BME280;36611;51.638;5.784;2022-08-19T02:31:33;101216.19;;;21.11;54.28
48848;BME280;36611;51.638;5.784;2022-08-19T02:34:01;101224.56;;;21.10;54.82
48848;BME280;36611;51.638;5.784;2022-08-19T02:36:28;101221.97;;;21.08;54.83
48848;BME280;36611;51.638;5.784;2022-08-19T02:38:56;101225.75;;;21.07;54.70
48848;BME280;36611;51.638;5.784;2022-08-19T02:41:28;101224.19;;;21.05;54.77
48848;BME280;36611;51.638;5.784;2022-08-19T02:44:00;101224.38;;;21.03;54.54
48848;BME280;36611;51.638;5.784;2022-08-19T02:46:47;101227.94;;;21.04;54.70
48848;BME280;36611;51.638;5.784;2022-08-19T02:49:17;101231.72;;;21.03;54.85
48848;BME280;36611;51.638;5.784;2022-08-19T02:51:45;101230.00;;;21.02;55.07
48848;BME280;36611;51.638;5.784;2022-08-19T02:54:15;101234.94;;;20.98;55.24
48848;BME280;36611;51.638;5.784;2022-08-19T02:56:43;101230.66;;;20.96;55.28
48848;BME280;36611;51.638;5.784;2022-08-19T02:59:10;101231.00;;;20.92;55.17
48848;BME280;36611;51.638;5.784;2022-08-19T03:01:39;101228.44;;;20.91;55.37
48848;BME280;36611;51.638;5.784;2022-08-19T03:04:08;101222.47;;;20.87;55.32
48848;BME280;36611;51.638;5.784;2022-08-19T03:06:37;101225.00;;;20.81;55.59
48848;BME280;36611;51.638;5.784;2022-08-19T03:09:04;101223.97;;;20.82;55.75
48848;BME280;36611;51.638;5.784;2022-08-19T03:11:32;101228.59;;;20.81;55.77
48848;BME280;36611;51.638;5.784;2022-08-19T03:14:00;101234.91;;;20.82;55.69
48848;BME280;36611;51.638;5.784;2022-08-19T03:16:29;101230.75;;;20.78;56.03
48848;BME280;36611;51.638;5.784;2022-08-19T03:19:00;101231.25;;;20.73;56.08
48848;BME280;36611;51.638;5.784;2022-08-19T03:21:32;101234.16;;;20.72;56.34
48848;BME280;36611;51.638;5.784;2022-08-19T03:24:04;101237.72;;;20.72;56.07
48848;BME280;36611;51.638;5.784;2022-08-19T03:26:31;101239.59;;;20.72;56.29
48848;BME280;36611;51.638;5.784;2022-08-19T03:29:02;101237.03;;;20.70;56.04
48848;BME280;36611;51.638;5.784;2022-08-19T03:31:31;101240.28;;;20.66;56.33
48848;BME280;36611;51.638;5.784;2022-08-19T03:34:23;101238.88;;;20.61;56.55
48848;BME280;36611;51.638;5.784;2022-08-19T03:36:56;101243.28;;;20.54;56.07
48848;BME280;36611;51.638;5.784;2022-08-19T03:39:25;101234.06;;;20.47;56.40
48848;BME280;36611;51.638;5.784;2022-08-19T03:41:53;101243.75;;;20.42;56.35
48848;BME280;36611;51.638;5.784;2022-08-19T03:44:46;101234.72;;;20.41;56.31
48848;BME280;36611;51.638;5.784;2022-08-19T03:47:13;101237.28;;;20.43;56.46
48848;BME280;36611;51.638;5.784;2022-08-19T03:49:43;101232.69;;;20.43;56.37
48848;BME280;36611;51.638;5.784;2022-08-19T03:52:10;101237.28;;;20.43;56.52
48848;BME280;36611;51.638;5.784;2022-08-19T03:54:38;101234.72;;;20.41;56.64
48848;BME280;36611;51.638;5.784;2022-08-19T03:57:05;101231.97;;;20.41;56.25
48848;BME280;36611;51.638;5.784;2022-08-19T03:59:34;101236.41;;;20.42;56.62
48848;BME280;36611;51.638;5.784;2022-08-19T04:02:05;101235.06;;;20.46;56.22
48848;BME280;36611;51.638;5.784;2022-08-19T04:04:35;101239.34;;;20.49;56.31
48848;BME280;36611;51.638;5.784;2022-08-19T04:07:03;101243.78;;;20.50;56.22
48848;BME280;36611;51.638;5.784;2022-08-19T04:09:30;101240.53;;;20.46;56.27
48848;BME280;36611;51.638;5.784;2022-08-19T04:11:57;101239.84;;;20.44;56.34
48848;BME280;36611;51.638;5.784;2022-08-19T04:14:27;101237.44;;;20.41;56.61
48848;BME280;36611;51.638;5.784;2022-08-19T04:16:56;101232.78;;;20.34;56.15
48848;BME280;36611;51.638;5.784;2022-08-19T04:19:23;101228.66;;;20.29;56.53
48848;BME280;36611;51.638;5.784;2022-08-19T04:21:53;101230.69;;;20.27;56.39
48848;BME280;36611;51.638;5.784;2022-08-19T04:24:23;101232.41;;;20.28;56.31
48848;BME280;36611;51.638;5.784;2022-08-19T04:26:50;101233.09;;;20.30;56.65
48848;BME280;36611;51.638;5.784;2022-08-19T04:29:20;101227.47;;;20.32;56.46
48848;BME280;36611;51.638;5.784;2022-08-19T04:31:49;101220.69;;;20.36;56.45
48848;BME280;36611;51.638;5.784;2022-08-19T04:34:21;101215.22;;;20.36;56.57
48848;BME280;36611;51.638;5.784;2022-08-19T04:36:49;101219.66;;;20.37;56.63
48848;BME280;36611;51.638;5.784;2022-08-19T04:39:25;101224.25;;;20.37;56.38
48848;BME280;36611;51.638;5.784;2022-08-19T04:42:13;101209.94;;;20.35;56.62
48848;BME280;36611;51.638;5.784;2022-08-19T04:44:58;101216.41;;;20.34;56.62
48848;BME280;36611;51.638;5.784;2022-08-19T04:47:25;101214.53;;;20.34;56.66
48848;BME280;36611;51.638;5.784;2022-08-19T04:50:12;101214.69;;;20.33;56.75
48848;BME280;36611;51.638;5.784;2022-08-19T04:52:38;101210.09;;;20.33;56.69
48848;BME280;36611;51.638;5.784;2022-08-19T04:55:12;101216.41;;;20.34;56.91
48848;BME280;36611;51.638;5.784;2022-08-19T04:57:39;101217.94;;;20.36;57.39
48848;BME280;36611;51.638;5.784;2022-08-19T05:00:08;101221.22;;;20.40;57.29
48848;BME280;36611;51.638;5.784;2022-08-19T05:02:35;101220.91;;;20.43;56.99
48848;BME280;36611;51.638;5.784;2022-08-19T05:05:02;101226.03;;;20.46;57.05
48848;BME280;36611;51.638;5.784;2022-08-19T05:07:29;101226.03;;;20.46;57.36
48848;BME280;36611;51.638;5.784;2022-08-19T05:09:57;101236.63;;;20.49;57.75
48848;BME280;36611;51.638;5.784;2022-08-19T05:12:25;101235.59;;;20.50;57.53
48848;BME280;36611;51.638;5.784;2022-08-19T05:14:55;101235.94;;;20.47;57.57
48848;BME280;36611;51.638;5.784;2022-08-19T05:17:24;101245.31;;;20.44;57.37
48848;BME280;36611;51.638;5.784;2022-08-19T05:19:54;101255.53;;;20.42;57.09
48848;BME280;36611;51.638;5.784;2022-08-19T05:22:41;101247.66;;;20.39;57.18
48848;BME280;36611;51.638;5.784;2022-08-19T05:25:12;101248.66;;;20.38;57.53
48848;BME280;36611;51.638;5.784;2022-08-19T05:27:40;101245.78;;;20.40;57.42
48848;BME280;36611;51.638;5.784;2022-08-19T05:30:08;101249.38;;;20.40;57.50
48848;BME280;36611;51.638;5.784;2022-08-19T05:32:35;101253.81;;;20.41;57.36
48848;BME280;36611;51.638;5.784;2022-08-19T05:35:04;101261.13;;;20.41;57.46
48848;BME280;36611;51.638;5.784;2022-08-19T05:37:31;101265.56;;;20.42;57.80
48848;BME280;36611;51.638;5.784;2022-08-19T05:39:57;101266.28;;;20.44;57.33
48848;BME280;36611;51.638;5.784;2022-08-19T05:42:24;101262.03;;;20.49;57.86
48848;BME280;36611;51.638;5.784;2022-08-19T05:44:53;101264.97;;;20.56;58.28
48848;BME280;36611;51.638;5.784;2022-08-19T05:47:19;101260.56;;;20.63;58.33
48848;BME280;36611;51.638;5.784;2022-08-19T05:49:47;101266.06;;;20.71;58.34
48848;BME280;36611;51.638;5.784;2022-08-19T05:52:16;101262.50;;;20.79;58.34
48848;BME280;36611;51.638;5.784;2022-08-19T05:54:45;101269.03;;;20.86;58.59
48848;BME280;36611;51.638;5.784;2022-08-19T05:57:17;101272.66;;;20.94;58.76
48848;BME280;36611;51.638;5.784;2022-08-19T05:59:45;101256.63;;;21.00;58.86
48848;BME280;36611;51.638;5.784;2022-08-19T06:02:14;101264.81;;;21.08;59.13
48848;BME280;36611;51.638;5.784;2022-08-19T06:04:41;101253.06;;;21.15;59.37
48848;BME280;36611;51.638;5.784;2022-08-19T06:07:10;101256.88;;;21.22;59.27
48848;BME280;36611;51.638;5.784;2022-08-19T06:09:39;101256.88;;;21.31;59.50
48848;BME280;36611;51.638;5.784;2022-08-19T06:12:08;101266.97;;;21.38;60.20
48848;BME280;36611;51.638;5.784;2022-08-19T06:14:39;101264.56;;;21.43;60.23
48848;BME280;36611;51.638;5.784;2022-08-19T06:17:07;101266.47;;;21.51;60.41
48848;BME280;36611;51.638;5.784;2022-08-19T06:19:34;101267.69;;;21.56;60.42
48848;BME280;36611;51.638;5.784;2022-08-19T06:22:07;101264.28;;;21.63;60.56
48848;BME280;36611;51.638;5.784;2022-08-19T06:24:35;101273.31;;;21.71;60.88
48848;BME280;36611;51.638;5.784;2022-08-19T06:27:02;101271.44;;;21.80;61.01
48848;BME280;36611;51.638;5.784;2022-08-19T06:29:29;101270.25;;;21.91;61.02
48848;BME280;36611;51.638;5.784;2022-08-19T06:31:58;101272.47;;;22.03;61.05
48848;BME280;36611;51.638;5.784;2022-08-19T06:34:28;101273.13;;;22.13;60.72
48848;BME280;36611;51.638;5.784;2022-08-19T06:36:56;101271.94;;;22.24;60.57
48848;BME280;36611;51.638;5.784;2022-08-19T06:39:27;101279.13;;;22.33;60.93
48848;BME280;36611;51.638;5.784;2022-08-19T06:41:57;101276.88;;;22.37;60.75
48848;BME280;36611;51.638;5.784;2022-08-19T06:44:34;101269.69;;;22.44;60.57
48848;BME280;36611;51.638;5.784;2022-08-19T06:47:12;101275.47;;;22.49;60.56
48848;BME280;36611;51.638;5.784;2022-08-19T06:49:40;101271.84;;;22.57;60.62
48848;BME280;36611;51.638;5.784;2022-08-19T06:52:07;101274.56;;;22.65;60.38
48848;BME280;36611;51.638;5.784;2022-08-19T06:54:35;101268.69;;;22.76;60.35
48848;BME280;36611;51.638;5.784;2022-08-19T06:57:23;101265.59;;;22.87;60.41
48848;BME280;36611;51.638;5.784;2022-08-19T06:59:49;101268.28;;;22.95;60.25
48848;BME280;36611;51.638;5.784;2022-08-19T07:02:16;101263.78;;;23.02;60.42
48848;BME280;36611;51.638;5.784;2022-08-19T07:04:45;101269.94;;;23.12;60.14
48848;BME280;36611;51.638;5.784;2022-08-19T07:07:14;101261.66;;;23.21;60.07
48848;BME280;36611;51.638;5.784;2022-08-19T07:09:47;101264.16;;;23.30;60.14
48848;BME280;36611;51.638;5.784;2022-08-19T07:12:24;101265.63;;;23.41;59.92
48848;BME280;36611;51.638;5.784;2022-08-19T07:14:51;101268.97;;;23.51;59.94
48848;BME280;36611;51.638;5.784;2022-08-19T07:17:20;101276.13;;;23.60;59.56
48848;BME280;36611;51.638;5.784;2022-08-19T07:19:47;101279.66;;;23.69;59.32
48848;BME280;36611;51.638;5.784;2022-08-19T07:22:14;101278.41;;;23.80;59.44
48848;BME280;36611;51.638;5.784;2022-08-19T07:24:43;101285.53;;;23.89;59.23
48848;BME280;36611;51.638;5.784;2022-08-19T07:27:18;101283.19;;;24.00;59.39
48848;BME280;36611;51.638;5.784;2022-08-19T07:29:51;101278.09;;;24.12;59.42
48848;BME280;36611;51.638;5.784;2022-08-19T07:32:24;101282.25;;;24.23;58.92
48848;BME280;36611;51.638;5.784;2022-08-19T07:34:54;101292.16;;;24.32;58.62
48848;BME280;36611;51.638;5.784;2022-08-19T07:37:23;101287.31;;;24.34;58.62
48848;BME280;36611;51.638;5.784;2022-08-19T07:39:58;101287.81;;;24.37;58.35
48848;BME280;36611;51.638;5.784;2022-08-19T07:42:25;101286.66;;;24.47;58.54
48848;BME280;36611;51.638;5.784;2022-08-19T07:44:52;101292.38;;;24.60;58.32
48848;BME280;36611;51.638;5.784;2022-08-19T07:47:19;101299.56;;;24.76;58.09
48848;BME280;36611;51.638;5.784;2022-08-19T07:50:08;101302.50;;;24.89;57.81
48848;BME280;36611;51.638;5.784;2022-08-19T07:52:36;101304.97;;;24.98;57.75
48848;BME280;36611;51.638;5.784;2022-08-19T07:55:07;101300.50;;;25.12;57.42
48848;BME280;36611;51.638;5.784;2022-08-19T07:57:54;101297.88;;;25.25;57.16
48848;BME280;36611;51.638;5.784;2022-08-19T08:00:21;101302.66;;;25.31;56.88
48848;BME280;36611;51.638;5.784;2022-08-19T08:02:50;101301.22;;;25.36;56.66
48848;BME280;36611;51.638;5.784;2022-08-19T08:05:23;101306.78;;;25.42;56.43
48848;BME280;36611;51.638;5.784;2022-08-19T08:08:11;101307.50;;;25.51;56.24
48848;BME280;36611;51.638;5.784;2022-08-19T08:10:58;101310.53;;;25.56;56.09
48848;BME280;36611;51.638;5.784;2022-08-19T08:13:31;101311.63;;;25.61;56.01
48848;BME280;36611;51.638;5.784;2022-08-19T08:16:02;101310.50;;;25.71;55.83
48848;BME280;36611;51.638;5.784;2022-08-19T08:18:29;101319.66;;;25.78;55.76
48848;BME280;36611;51.638;5.784;2022-08-19T08:20:56;101317.81;;;25.85;55.56
48848;BME280;36611;51.638;5.784;2022-08-19T08:23:26;101329.53;;;25.93;55.37
48848;BME280;36611;51.638;5.784;2022-08-19T08:25:57;101325.22;;;26.06;55.21
48848;BME280;36611;51.638;5.784;2022-08-19T08:28:25;101330.59;;;26.14;54.89
48848;BME280;36611;51.638;5.784;2022-08-19T08:30:56;101322.44;;;26.27;54.80
48848;BME280;36611;51.638;5.784;2022-08-19T08:33:28;101321.97;;;26.45;54.70
48848;BME280;36611;51.638;5.784;2022-08-19T08:36:10;101328.41;;;26.58;54.07
48848;BME280;36611;51.638;5.784;2022-08-19T08:38:37;101318.31;;;26.72;53.72
48848;BME280;36611;51.638;5.784;2022-08-19T08:41:22;101329.47;;;26.92;53.74
48848;BME280;36611;51.638;5.784;2022-08-19T08:43:56;101330.84;;;27.09;53.16
48848;BME280;36611;51.638;5.784;2022-08-19T08:46:39;101332.16;;;27.13;53.03
48848;BME280;36611;51.638;5.784;2022-08-19T08:49:31;101334.06;;;27.13;52.36
48848;BME280;36611;51.638;5.784;2022-08-19T08:52:06;101328.59;;;27.26;52.36
48848;BME280;36611;51.638;5.784;2022-08-19T08:54:37;101328.84;;;27.44;52.23
48848;BME280;36611;51.638;5.784;2022-08-19T08:57:13;101337.25;;;27.64;51.83
48848;BME280;36611;51.638;5.784;2022-08-19T08:59:43;101331.53;;;27.79;51.40
48848;BME280;36611;51.638;5.784;2022-08-19T09:02:15;101330.91;;;27.97;51.21
48848;BME280;36611;51.638;5.784;2022-08-19T09:04:42;101324.97;;;28.13;50.69
48848;BME280;36611;51.638;5.784;2022-08-19T09:10:43;101329.25;;;28.48;49.74
48848;BME280;36611;51.638;5.784;2022-08-19T09:16:07;101323.00;;;28.79;48.75
48848;BME280;36611;51.638;5.784;2022-08-19T09:18:41;101319.38;;;28.79;48.31
48848;BME280;36611;51.638;5.784;2022-08-19T09:21:08;101311.34;;;28.71;47.81
48848;BME280;36611;51.638;5.784;2022-08-19T09:23:40;101318.16;;;28.68;47.78
48848;BME280;36611;51.638;5.784;2022-08-19T09:26:13;101322.38;;;28.71;47.88
48848;BME280;36611;51.638;5.784;2022-08-19T09:28:43;101331.31;;;28.73;47.68
48848;BME280;36611;51.638;5.784;2022-08-19T09:31:18;101318.13;;;28.75;47.43
48848;BME280;36611;51.638;5.784;2022-08-19T09:33:49;101320.47;;;28.78;47.32
48848;BME280;36611;51.638;5.784;2022-08-19T09:36:20;101314.06;;;28.77;47.23
48848;BME280;36611;51.638;5.784;2022-08-19T09:39:00;101315.56;;;28.80;47.23
48848;BME280;36611;51.638;5.784;2022-08-19T09:41:27;101323.00;;;28.86;47.22
48848;BME280;36611;51.638;5.784;2022-08-19T09:43:59;101324.69;;;28.94;47.18
48848;BME280;36611;51.638;5.784;2022-08-19T09:46:28;101325.53;;;29.01;47.08
48848;BME280;36611;51.638;5.784;2022-08-19T09:48:58;101326.81;;;29.05;46.78
48848;BME280;36611;51.638;5.784;2022-08-19T09:51:32;101329.34;;;29.06;46.78
48848;BME280;36611;51.638;5.784;2022-08-19T09:54:02;101329.75;;;29.10;46.75
48848;BME280;36611;51.638;5.784;2022-08-19T09:56:31;101341.22;;;29.14;46.62
48848;BME280;36611;51.638;5.784;2022-08-19T09:59:00;101335.69;;;29.14;46.41
48848;BME280;36611;51.638;5.784;2022-08-19T10:01:29;101349.09;;;29.17;46.25
48848;BME280;36611;51.638;5.784;2022-08-19T10:03:59;101348.88;;;29.18;45.88
48848;BME280;36611;51.638;5.784;2022-08-19T10:06:29;101351.84;;;29.17;45.48
48848;BME280;36611;51.638;5.784;2022-08-19T10:09:13;101338.50;;;29.07;45.55
48848;BME280;36611;51.638;5.784;2022-08-19T10:11:42;101350.22;;;29.02;45.43
48848;BME280;36611;51.638;5.784;2022-08-19T10:14:21;101341.66;;;29.10;45.75
48848;BME280;36611;51.638;5.784;2022-08-19T10:16:50;101346.75;;;29.20;45.71
48848;BME280;36611;51.638;5.784;2022-08-19T10:19:18;101344.78;;;29.27;45.71
48848;BME280;36611;51.638;5.784;2022-08-19T10:21:52;101347.75;;;29.32;45.27
48848;BME280;36611;51.638;5.784;2022-08-19T10:24:22;101347.94;;;29.37;44.93
48848;BME280;36611;51.638;5.784;2022-08-19T10:26:50;101346.22;;;29.36;44.60
48848;BME280;36611;51.638;5.784;2022-08-19T10:29:24;101344.13;;;29.32;44.47
48848;BME280;36611;51.638;5.784;2022-08-19T10:32:04;101342.00;;;29.34;44.53
48848;BME280;36611;51.638;5.784;2022-08-19T10:34:39;101342.38;;;29.44;44.39
48848;BME280;36611;51.638;5.784;2022-08-19T10:37:13;101339.19;;;29.47;43.95
48848;BME280;36611;51.638;5.784;2022-08-19T10:39:45;101343.47;;;29.43;43.72
48848;BME280;36611;51.638;5.784;2022-08-19T10:42:14;101344.09;;;29.45;43.94
48848;BME280;36611;51.638;5.784;2022-08-19T10:44:42;101345.34;;;29.42;43.73
48848;BME280;36611;51.638;5.784;2022-08-19T10:47:09;101342.84;;;29.34;43.69
48848;BME280;36611;51.638;5.784;2022-08-19T10:49:52;101336.47;;;29.34;43.64
48848;BME280;36611;51.638;5.784;2022-08-19T10:52:43;101343.69;;;29.35;43.59
48848;BME280;36611;51.638;5.784;2022-08-19T10:55:21;101338.56;;;29.38;43.62
48848;BME280;36611;51.638;5.784;2022-08-19T10:58:16;101331.50;;;29.49;43.68
48848;BME280;36611;51.638;5.784;2022-08-19T11:00:51;101331.28;;;29.51;43.40
48848;BME280;36611;51.638;5.784;2022-08-19T11:03:18;101333.84;;;29.52;43.38
48848;BME280;36611;51.638;5.784;2022-08-19T11:05:45;101334.72;;;29.46;43.05
48848;BME280;36611;51.638;5.784;2022-08-19T11:08:11;101340.03;;;29.41;43.00
48848;BME280;36611;51.638;5.784;2022-08-19T11:10:53;101336.41;;;29.40;42.62
48848;BME280;36611;51.638;5.784;2022-08-19T11:13:23;101334.72;;;29.39;42.97
48848;BME280;36611;51.638;5.784;2022-08-19T11:16:02;101331.31;;;29.44;42.62
48848;BME280;36611;51.638;5.784;2022-08-19T11:18:38;101331.69;;;29.54;42.81
48848;BME280;36611;51.638;5.784;2022-08-19T11:21:10;101334.63;;;29.59;42.45
48848;BME280;36611;51.638;5.784;2022-08-19T11:23:37;101341.03;;;29.60;42.59
48848;BME280;36611;51.638;5.784;2022-08-19T11:26:04;101338.25;;;29.60;42.66
48848;BME280;36611;51.638;5.784;2022-08-19T11:28:31;101341.03;;;29.60;42.37
48848;BME280;36611;51.638;5.784;2022-08-19T11:30:57;101326.16;;;29.54;42.46
48848;BME280;36611;51.638;5.784;2022-08-19T11:33:30;101323.66;;;29.46;42.67
48848;BME280;36611;51.638;5.784;2022-08-19T11:35:58;101321.31;;;29.43;42.31
48848;BME280;36611;51.638;5.784;2022-08-19T11:38:26;101321.94;;;29.45;42.54
48848;BME280;36611;51.638;5.784;2022-08-19T11:40:57;101323.19;;;29.49;42.92
48848;BME280;36611;51.638;5.784;2022-08-19T11:43:28;101325.50;;;29.59;42.73
48848;BME280;36611;51.638;5.784;2022-08-19T11:46:05;101320.53;;;29.67;42.74
48848;BME280;36611;51.638;5.784;2022-08-19T11:48:34;101314.53;;;29.77;42.71
48848;BME280;36611;51.638;5.784;2022-08-19T11:51:04;101318.94;;;29.85;42.58
48848;BME280;36611;51.638;5.784;2022-08-19T11:53:36;101325.06;;;29.93;42.23
48848;BME280;36611;51.638;5.784;2022-08-19T11:56:04;101316.91;;;30.05;42.00
48848;BME280;36611;51.638;5.784;2022-08-19T11:58:31;101325.38;;;30.10;41.70
48848;BME280;36611;51.638;5.784;2022-08-19T12:00:57;101320.63;;;30.17;41.87
48848;BME280;36611;51.638;5.784;2022-08-19T12:03:26;101311.56;;;30.28;41.67
48848;BME280;36611;51.638;5.784;2022-08-19T12:05:52;101319.75;;;30.42;41.39
48848;BME280;36611;51.638;5.784;2022-08-19T12:08:19;101320.78;;;30.47;41.13
48848;BME280;36611;51.638;5.784;2022-08-19T12:10:46;101322.88;;;30.52;40.80
48848;BME280;36611;51.638;5.784;2022-08-19T12:13:16;101314.56;;;30.52;40.60
48848;BME280;36611;51.638;5.784;2022-08-19T12:15:46;101307.56;;;30.49;40.72
48848;BME280;36611;51.638;5.784;2022-08-19T12:18:14;101316.88;;;30.55;40.76
48848;BME280;36611;51.638;5.784;2022-08-19T12:20:42;101322.53;;;30.66;40.59
48848;BME280;36611;51.638;5.784;2022-08-19T12:23:10;101316.22;;;30.78;40.44
48848;BME280;36611;51.638;5.784;2022-08-19T12:25:42;101315.06;;;30.85;40.52
48848;BME280;36611;51.638;5.784;2022-08-19T12:28:17;101316.13;;;31.03;40.44
48848;BME280;36611;51.638;5.784;2022-08-19T12:30:43;101317.09;;;31.15;40.05
48848;BME280;36611;51.638;5.784;2022-08-19T12:33:13;101310.44;;;31.16;39.72
48848;BME280;36611;51.638;5.784;2022-08-19T12:35:42;101316.44;;;31.13;39.18
48848;BME280;36611;51.638;5.784;2022-08-19T12:38:11;101312.06;;;31.05;39.73
48848;BME280;36611;51.638;5.784;2022-08-19T12:40:37;101313.59;;;31.01;39.23
48848;BME280;36611;51.638;5.784;2022-08-19T12:43:10;101309.50;;;31.04;39.65
48848;BME280;36611;51.638;5.784;2022-08-19T12:45:37;101309.81;;;31.14;39.36
48848;BME280;36611;51.638;5.784;2022-08-19T12:48:06;101305.28;;;31.19;39.13
48848;BME280;36611;51.638;5.784;2022-08-19T12:50:52;101289.28;;;31.21;39.46
48848;BME280;36611;51.638;5.784;2022-08-19T12:53:23;101301.97;;;31.29;39.08
48848;BME280;36611;51.638;5.784;2022-08-19T12:56:00;101292.00;;;31.40;39.07
48848;BME280;36611;51.638;5.784;2022-08-19T12:58:27;101286.81;;;31.43;39.24
48848;BME280;36611;51.638;5.784;2022-08-19T13:00:55;101287.19;;;31.47;39.10
48848;BME280;36611;51.638;5.784;2022-08-19T13:03:22;101288.19;;;31.52;38.65
48848;BME280;36611;51.638;5.784;2022-08-19T13:05:55;101279.13;;;31.57;38.93
48848;BME280;36611;51.638;5.784;2022-08-19T13:08:22;101282.75;;;31.57;38.55
48848;BME280;36611;51.638;5.784;2022-08-19T13:10:49;101282.19;;;31.67;39.29
48848;BME280;36611;51.638;5.784;2022-08-19T13:13:21;101277.47;;;31.68;38.91
48848;BME280;36611;51.638;5.784;2022-08-19T13:15:48;101283.38;;;31.59;38.78